Impacts METAR Board
IDs:

KTPL - Temple/Miller Rgnl, TX, US

Updated at: 0100 UTC 15 Aug 2020
Potential Impact None Slight Moderate High
Time 14/13Z 14/14Z 14/15Z 14/16Z 14/17Z 14/18Z 14/19Z 14/20Z 14/21Z 14/22Z 14/23Z 15/00Z 15/01Z
Temp79 84 89 93 97 100 103 103 104 104 104 102 98
Dewpt73 73 73 72 70 68 66 65 64 62 59 58 60
Altim29.94 29.95 29.95 29.96 29.94 29.92 29.90 29.88 29.85 29.83 29.82 29.81 29.82
VIS10 10 10 10 10 10 10 10 10 10 10 10 10
CIG-- -- -- -- -- -- -- -- -- -- -- -- --
CoverCLRCLRCLRCLRCLRCLRCLRCLRCLRCLRCLRCLRCLR
FltCatVFRVFRVFRVFRVFRVFRVFRVFRVFRVFRVFRVFRVFR
WX--------------------------
WDir180190210210190170180180160160170150160
WSpd9 11 11 12 10 11 12 7 10 14 14 11 13
WGst-- -- -- -- -- -- -- 18 20 20 -- -- --
Raw hourly METARs
KTPL 141251Z AUTO 18009KT 10SM CLR 26/23 A2994 RMK AO2 SLP126 T02610228
KTPL 141351Z AUTO 19011KT 10SM CLR 29/23 A2995 RMK AO2 SLP129 T02890228
KTPL 141451Z AUTO 21011KT 10SM CLR 32/23 A2995 RMK AO2 SLP129 T03170228 51009
KTPL 141551Z AUTO 21012KT 10SM CLR 34/22 A2996 RMK AO2 SLP132 T03390222
KTPL 141651Z AUTO 19010KT 10SM CLR 36/21 A2994 RMK AO2 SLP128 T03610211
KTPL 141751Z AUTO 17011KT 10SM CLR 38/20 A2992 RMK AO2 SLP118 T03780200 10383 20250 58011
KTPL 141851Z AUTO 18012KT 10SM CLR 39/19 A2990 RMK AO2 SLP112 T03940189
KTPL 141951Z AUTO 18007G18KT 10SM CLR 39/18 A2988 RMK AO2 SLP106 T03940183
KTPL 142051Z AUTO 16010G20KT 10SM CLR 40/18 A2985 RMK AO2 SLP096 T04000178 58022
KTPL 142151Z AUTO 16014G20KT 10SM CLR 40/17 A2983 RMK AO2 SLP088 T04000167
KTPL 142251Z AUTO 17014KT 10SM CLR 40/15 A2982 RMK AO2 SLP085 T04000150
KTPL 142351Z AUTO 15011KT 10SM CLR 39/14 A2981 RMK AO2 SLP083 T03890144 10411 20372 56013
KTPL 150051Z AUTO 16013KT 10SM CLR 37/16 A2982 RMK AO2 SLP084 T03670156